Time;durP1;ratioP1;P1;durP2;ratioP2;P2;SDS_P1;SDS_P2;PMS_P1;PMS_P2;Temp;Humidity;BMP_temperature;BMP_pressure;BME280_temperature;BME280_humidity;BME280_pressure;Samples;Min_cycle;Max_cycle;Signal;HPM_P1;HPM_P2
2023/02/18 00:02:04;;;;;;;38.40;34.72;;;;;;;6.36;100.00;101653.34;5031584;28;20068;-80
2023/02/18 00:04:31;;;;;;;42.47;38.08;;;;;;;6.21;100.00;101644.34;5035210;28;20045;-80
2023/02/18 00:06:58;;;;;;;41.80;37.72;;;;;;;6.23;100.00;101638.91;5035125;28;20184;-80
2023/02/18 00:09:24;;;;;;;42.45;37.92;;;;;;;6.21;100.00;101640.88;5035530;28;20046;-80
2023/02/18 00:11:53;;;;;;;39.35;35.45;;;;;;;6.33;100.00;101637.00;5034829;28;20503;-80
2023/02/18 00:14:20;;;;;;;44.97;40.95;;;;;;;6.22;100.00;101631.97;5035293;28;20046;-80
2023/02/18 00:16:46;;;;;;;49.42;44.83;;;;;;;6.31;100.00;101626.59;5035037;28;20046;-80
2023/02/18 00:19:16;;;;;;;46.47;41.85;;;;;;;6.34;100.00;101631.56;5035003;28;20049;-80
2023/02/18 00:21:43;;;;;;;38.38;34.22;;;;;;;6.39;100.00;101615.25;5035316;28;20054;-80
2023/02/18 00:24:14;;;;;;;39.60;35.15;;;;;;;6.52;100.00;101614.84;5034510;28;20049;-80
2023/02/18 00:26:40;;;;;;;40.47;36.35;;;;;;;6.61;100.00;101619.16;5035213;28;20092;-80
2023/02/18 00:29:09;;;;;;;40.33;36.22;;;;;;;6.63;100.00;101615.38;5035498;28;20080;-80
2023/02/18 00:31:37;;;;;;;42.53;38.33;;;;;;;6.46;100.00;101608.38;5034638;28;20049;-80
2023/02/18 00:34:05;;;;;;;42.65;38.45;;;;;;;6.30;100.00;101605.66;5027033;28;20053;-80
2023/02/18 00:36:32;;;;;;;37.97;34.58;;;;;;;6.31;100.00;101602.84;5034797;28;20111;-80
2023/02/18 00:39:00;;;;;;;42.67;38.25;;;;;;;6.22;100.00;101608.22;5035033;28;20049;-80
2023/02/18 00:41:29;;;;;;;42.13;36.20;;;;;;;6.19;100.00;101597.00;5033090;28;20103;-80
2023/02/18 00:43:56;;;;;;;44.03;38.47;;;;;;;6.17;100.00;101590.22;5034981;28;20243;-80
2023/02/18 00:46:25;;;;;;;41.35;37.05;;;;;;;6.27;100.00;101582.22;5034767;28;20517;-80
2023/02/18 00:48:52;;;;;;;45.03;40.40;;;;;;;6.14;100.00;101579.97;5034289;28;20073;-80
2023/02/18 00:51:18;;;;;;;40.05;35.80;;;;;;;6.40;100.00;101580.78;5034562;28;20050;-80
2023/02/18 00:53:45;;;;;;;42.28;37.80;;;;;;;6.77;100.00;101576.16;5034193;28;20111;-80
2023/02/18 00:56:12;;;;;;;44.63;40.00;;;;;;;6.62;100.00;101578.56;5034705;28;20482;-80
2023/02/18 00:58:39;;;;;;;42.38;38.30;;;;;;;6.65;100.00;101565.06;5034568;28;20045;-80
2023/02/18 01:01:07;;;;;;;48.85;44.08;;;;;;;6.60;100.00;101562.91;5034225;28;20057;-81
2023/02/18 01:03:35;;;;;;;47.45;42.83;;;;;;;6.68;100.00;101545.44;5034689;28;20115;-80
2023/02/18 01:06:02;;;;;;;48.90;43.67;;;;;;;6.63;100.00;101541.47;5033517;28;20118;-80
2023/02/18 01:08:29;;;;;;;39.65;35.17;;;;;;;6.73;100.00;101533.41;5034249;28;20054;-80
2023/02/18 01:10:58;;;;;;;43.15;38.70;;;;;;;6.80;100.00;101530.94;5034090;28;20049;-80
2023/02/18 01:13:26;;;;;;;45.63;40.88;;;;;;;6.88;100.00;101539.72;5033588;28;20061;-80
2023/02/18 01:15:53;;;;;;;42.33;36.33;;;;;;;6.91;100.00;101538.56;5033755;28;20049;-80
2023/02/18 01:18:21;;;;;;;44.60;40.03;;;;;;;7.02;100.00;101542.72;5034098;28;20107;-80
2023/02/18 01:20:49;;;;;;;46.88;41.80;;;;;;;6.81;100.00;101541.38;5033236;28;20045;-80
2023/02/18 01:23:16;;;;;;;44.90;38.15;;;;;;;6.65;100.00;101536.00;5034207;28;20045;-80
2023/02/18 01:25:43;;;;;;;42.03;37.83;;;;;;;6.50;100.00;101540.25;5033794;28;20103;-80
2023/02/18 01:28:12;;;;;;;47.80;43.13;;;;;;;6.43;100.00;101529.50;5031732;28;20049;-81
2023/02/18 01:30:39;;;;;;;49.17;44.40;;;;;;;6.35;100.00;101537.38;5033729;28;20107;-80
2023/02/18 01:33:06;;;;;;;45.45;40.72;;;;;;;6.37;100.00;101527.50;5034040;28;20053;-80
2023/02/18 01:35:33;;;;;;;54.08;49.40;;;;;;;6.34;100.00;101530.47;5034207;28;20049;-80
2023/02/18 01:38:01;;;;;;;52.60;47.90;;;;;;;6.41;100.00;101528.84;5033789;28;20120;-80
2023/02/18 01:40:30;;;;;;;42.17;37.67;;;;;;;6.26;100.00;101515.41;5034364;28;20076;-80
2023/02/18 01:42:57;;;;;;;41.60;37.17;;;;;;;6.13;100.00;101522.94;5033496;28;20057;-80
2023/02/18 01:46:05;;;;;;;44.15;39.60;;;;;;;5.91;100.00;101529.56;5033744;28;20107;-80
2023/02/18 01:48:36;;;;;;;48.20;43.30;;;;;;;6.01;100.00;101525.00;5033713;28;20553;-80
2023/02/18 01:51:11;;;;;;;51.65;43.65;;;;;;;6.14;100.00;101520.16;5034205;28;20053;-80
2023/02/18 01:53:45;;;;;;;81.95;52.65;;;;;;;6.05;100.00;101529.00;5033680;28;20049;-80
2023/02/18 01:56:19;;;;;;;42.00;37.58;;;;;;;6.25;100.00;101529.59;5033708;28;20082;-80
2023/02/18 01:58:47;;;;;;;42.25;37.88;;;;;;;6.43;100.00;101530.34;5032661;28;20115;-80
2023/02/18 02:01:14;;;;;;;40.33;36.38;;;;;;;6.39;100.00;101523.72;5033238;28;20054;-80
2023/02/18 02:03:41;;;;;;;40.30;36.25;;;;;;;6.33;100.00;101518.25;5033255;28;20569;-80
2023/02/18 02:06:15;;;;;;;44.38;40.38;;;;;;;6.33;100.00;101515.63;5033247;28;20054;-80
2023/02/18 02:08:45;;;;;;;42.70;38.70;;;;;;;6.47;100.00;101509.72;5025416;28;20561;-80
2023/02/18 02:11:25;;;;;;;37.38;33.58;;;;;;;6.59;100.00;101516.38;5032503;28;20099;-80
2023/02/18 02:14:19;;;;;;;41.78;37.75;;;;;;;6.76;100.00;101508.50;5032491;28;20042;-80
2023/02/18 02:16:56;;;;;;;44.95;40.83;;;;;;;6.62;100.00;101500.19;5017575;28;20111;-80
2023/02/18 02:19:56;;;;;;;45.20;41.40;;;;;;;6.62;100.00;101494.91;5032674;28;20049;-80
2023/02/18 02:22:54;;;;;;;37.58;34.10;;;;;;;6.72;100.00;101505.38;5028434;28;20119;-80
2023/02/18 02:25:43;;;;;;;43.15;39.45;;;;;;;6.79;100.00;101487.88;5016735;28;20049;-80
2023/02/18 02:28:48;;;;;;;39.38;35.28;;;;;;;6.82;100.00;101479.63;5032704;28;20053;-80
2023/02/18 02:31:38;;;;;;;53.33;48.53;;;;;;;6.96;100.00;101474.69;5025754;28;20054;-80
2023/02/18 02:34:43;;;;;;;46.15;41.63;;;;;;;7.14;100.00;101467.47;5029091;28;20412;-80
2023/02/18 02:37:16;;;;;;;44.00;40.22;;;;;;;7.10;100.00;101469.59;5032267;28;20466;-80
2023/02/18 02:39:48;;;;;;;;;;;;;;;7.07;100.00;101459.34;5033057;28;20116;-80
2023/02/18 02:42:26;;;;;;;43.50;39.40;;;;;;;7.28;100.00;101469.41;5032321;28;19944;-80
2023/02/18 02:44:57;;;;;;;42.65;38.85;;;;;;;7.48;100.00;101453.25;5032331;28;20045;-80
2023/02/18 02:47:32;;;;;;;42.13;38.47;;;;;;;7.45;100.00;101457.03;5032380;28;20131;-80
2023/02/18 02:50:06;;;;;;;57.15;52.95;;;;;;;7.22;100.00;101462.16;5032761;28;20099;-80
2023/02/18 02:52:37;;;;;;;47.17;43.63;;;;;;;7.50;99.34;101467.94;5032393;28;20049;-80
2023/02/18 02:55:05;;;;;;;42.25;36.45;;;;;;;7.53;98.66;101466.75;5032466;28;20524;-80
2023/02/18 02:57:49;;;;;;;38.97;35.63;;;;;;;8.00;94.00;101476.56;5031835;28;20049;-80
2023/02/18 03:00:18;;;;;;;38.67;35.35;;;;;;;7.67;96.18;101467.91;5025556;28;20052;-80
2023/02/18 03:03:02;;;;;;;39.47;36.15;;;;;;;7.52;98.17;101478.34;5024196;28;20046;-80
2023/02/18 03:05:43;;;;;;;40.40;36.63;;;;;;;7.78;95.19;101470.19;5024935;28;20088;-80
2023/02/18 03:08:24;;;;;;;32.53;29.30;;;;;;;7.67;95.31;101486.41;5029149;28;20091;-81
2023/02/18 03:10:59;;;;;;;38.13;35.10;;;;;;;8.01;91.01;101484.31;5031807;28;20506;-80
2023/02/18 03:13:37;;;;;;;36.78;33.70;;;;;;;7.79;92.92;101485.06;5031579;28;20049;-80
2023/02/18 03:16:16;;;;;;;47.90;44.15;;;;;;;8.00;92.01;101482.69;5032435;28;20049;-80
2023/02/18 03:18:47;;;;;;;39.10;35.75;;;;;;;8.02;89.87;101475.41;5029305;28;20119;-80
2023/02/18 03:21:23;;;;;;;40.75;37.55;;;;;;;7.77;93.20;101487.84;5032310;28;20122;-80
2023/02/18 03:23:56;;;;;;;36.17;32.67;;;;;;;7.78;92.71;101480.78;5032630;28;20080;-80
2023/02/18 03:26:25;;;;;;;35.40;32.60;;;;;;;7.85;91.30;101476.44;5031902;28;20092;-80
2023/02/18 03:28:56;;;;;;;53.60;50.00;;;;;;;7.99;91.51;101470.47;5030898;28;20053;-80
2023/02/18 03:31:27;;;;;;;43.22;39.80;;;;;;;7.62;95.12;101475.50;5032252;28;20046;-80
2023/02/18 03:33:59;;;;;;;47.15;43.80;;;;;;;7.73;92.73;101469.88;5030668;28;20042;-80
2023/02/18 03:36:29;;;;;;;40.42;37.20;;;;;;;7.58;94.69;101462.63;5031454;28;20042;-80
2023/02/18 03:39:01;;;;;;;36.03;33.05;;;;;;;7.82;92.12;101460.09;5036021;28;20041;-80
2023/02/18 03:41:28;;;;;;;35.28;32.08;;;;;;;7.52;94.84;101451.91;5036014;28;20053;-80
2023/02/18 03:44:00;;;;;;;37.70;34.70;;;;;;;8.16;89.52;101449.22;5035536;28;20467;-80
2023/02/18 03:46:27;;;;;;;42.88;39.42;;;;;;;7.98;91.26;101447.63;5035613;28;20171;-80
2023/02/18 03:48:54;;;;;;;42.15;38.70;;;;;;;8.18;88.14;101437.47;5035640;28;20050;-80
2023/02/18 03:51:21;;;;;;;42.08;38.72;;;;;;;8.17;86.48;101429.69;5035982;28;20053;-80
2023/02/18 03:53:49;;;;;;;34.03;31.33;;;;;;;8.18;85.99;101423.44;5036749;28;20053;-80
2023/02/18 03:56:17;;;;;;;38.97;35.97;;;;;;;8.12;86.90;101432.06;5035857;28;20103;-80
2023/02/18 03:58:44;;;;;;;33.72;31.00;;;;;;;8.19;86.58;101436.47;5035672;28;20053;-80
2023/02/18 04:01:10;;;;;;;39.30;36.20;;;;;;;7.94;89.14;101427.00;5035488;28;20057;-80
2023/02/18 04:03:37;;;;;;;36.80;34.08;;;;;;;7.97;88.71;101422.19;5035715;28;20469;-80
2023/02/18 04:06:04;;;;;;;41.60;38.63;;;;;;;8.13;86.67;101408.06;5035631;28;20049;-80
2023/02/18 04:08:31;;;;;;;35.78;33.08;;;;;;;8.36;83.19;101409.94;5035376;28;20099;-80
2023/02/18 04:11:00;;;;;;;38.42;35.63;;;;;;;8.12;85.43;101406.41;5035505;28;20460;-80
2023/02/18 04:13:27;;;;;;;40.53;37.65;;;;;;;8.51;81.79;101402.09;5035703;28;20057;-80
2023/02/18 04:15:53;;;;;;;41.47;38.65;;;;;;;8.37;82.12;101390.41;5035318;28;20054;-80
2023/02/18 04:18:20;;;;;;;34.33;31.73;;;;;;;8.48;81.00;101382.09;5035461;28;20045;-80
2023/02/18 04:20:48;;;;;;;34.33;31.98;;;;;;;8.31;82.28;101388.44;5030681;28;20054;-81
2023/02/18 04:23:15;;;;;;;40.00;37.15;;;;;;;8.05;84.65;101386.94;5035256;28;20407;-80
2023/02/18 04:25:41;;;;;;;39.17;36.17;;;;;;;8.45;81.32;101383.25;5035120;28;20057;-80
2023/02/18 04:28:12;;;;;;;35.20;32.53;;;;;;;8.30;83.09;101397.41;5035471;28;20115;-81
2023/02/18 04:30:38;;;;;;;37.60;34.38;;;;;;;8.34;82.62;101391.56;5035340;28;20132;-80
2023/02/18 04:33:05;;;;;;;31.58;28.98;;;;;;;8.28;83.86;101386.97;5035300;28;20045;-80
2023/02/18 04:35:32;;;;;;;33.03;30.45;;;;;;;8.48;80.01;101393.50;5034677;28;20119;-80
2023/02/18 04:37:59;;;;;;;34.10;31.50;;;;;;;8.24;82.66;101389.16;5035322;28;20095;-80
2023/02/18 04:40:29;;;;;;;37.33;34.70;;;;;;;8.30;81.16;101390.28;5034354;28;20111;-80
2023/02/18 04:42:56;;;;;;;39.33;36.17;;;;;;;7.83;85.98;101385.03;5034681;28;20050;-80
2023/02/18 04:45:24;;;;;;;42.63;39.33;;;;;;;8.19;84.01;101380.91;5034651;28;20494;-80
2023/02/18 04:47:51;;;;;;;34.95;32.45;;;;;;;8.38;80.99;101382.34;5034889;28;20127;-80
2023/02/18 04:50:18;;;;;;;35.00;32.35;;;;;;;8.19;83.40;101377.44;5033865;28;20052;-80
2023/02/18 04:52:45;;;;;;;38.95;36.17;;;;;;;8.16;83.32;101372.50;5034781;28;20049;-80
2023/02/18 04:55:12;;;;;;;35.75;33.08;;;;;;;7.83;86.56;101372.63;5034764;28;20054;-81
2023/02/18 04:57:38;;;;;;;40.78;38.00;;;;;;;8.24;82.61;101361.88;5034489;28;20095;-80
2023/02/18 05:00:07;;;;;;;39.03;36.20;;;;;;;8.28;82.40;101357.84;5034553;28;20499;-80
2023/02/18 05:02:35;;;;;;;40.63;37.80;;;;;;;8.32;81.45;101353.88;5033714;28;20045;-80
2023/02/18 05:05:02;;;;;;;35.50;32.80;;;;;;;8.18;83.62;101351.97;5034984;28;20049;-80
2023/02/18 05:07:29;;;;;;;29.33;27.23;;;;;;;8.06;84.79;101351.53;5034040;28;20045;-80
2023/02/18 05:09:55;;;;;;;33.55;31.13;;;;;;;8.40;83.50;101347.72;5034193;28;20111;-80
2023/02/18 05:12:22;;;;;;;32.15;29.65;;;;;;;8.47;83.00;101354.81;5033754;28;20515;-81
2023/02/18 05:14:49;;;;;;;32.72;30.15;;;;;;;8.48;81.04;101348.50;5034319;28;20053;-80
2023/02/18 05:17:16;;;;;;;34.47;31.55;;;;;;;8.46;82.33;101352.31;5034299;28;20053;-80
2023/02/18 05:19:44;;;;;;;33.83;31.20;;;;;;;8.47;81.66;101346.00;5029742;28;20131;-80
2023/02/18 05:22:11;;;;;;;28.80;26.55;;;;;;;8.44;81.30;101326.03;5033650;28;20096;-80
2023/02/18 05:24:37;;;;;;;29.20;26.77;;;;;;;8.48;82.26;101343.19;5034289;28;20111;-80
2023/02/18 05:27:04;;;;;;;28.73;26.27;;;;;;;8.47;81.75;101346.88;5034414;28;20107;-80
2023/02/18 05:29:31;;;;;;;29.98;27.63;;;;;;;8.63;81.26;101361.78;5033937;28;20045;-80
2023/02/18 05:31:57;;;;;;;29.90;27.55;;;;;;;8.35;83.10;101366.78;5033968;28;20127;-80
2023/02/18 05:34:24;;;;;;;28.52;26.13;;;;;;;8.85;79.92;101354.81;5034095;28;20060;-81
2023/02/18 05:36:53;;;;;;;28.85;26.40;;;;;;;9.14;78.20;101361.19;5030309;28;20045;-80
2023/02/18 05:39:19;;;;;;;29.98;27.38;;;;;;;8.78;79.96;101358.38;5033076;28;20045;-81
2023/02/18 05:41:46;;;;;;;27.48;25.00;;;;;;;9.14;78.36;101367.31;5033222;28;20049;-80
2023/02/18 05:44:32;;;;;;;28.70;26.17;;;;;;;8.87;80.85;101367.91;5033766;28;20053;-80
2023/02/18 05:47:00;;;;;;;29.88;27.38;;;;;;;8.78;80.95;101371.63;5027575;28;20125;-81
2023/02/18 05:49:28;;;;;;;27.02;24.52;;;;;;;8.56;84.47;101362.66;5032971;28;20080;-81
2023/02/18 05:51:56;;;;;;;29.55;27.05;;;;;;;8.98;81.20;101361.34;5033491;28;20045;-81
2023/02/18 05:54:24;;;;;;;29.70;26.75;;;;;;;9.43;76.87;101380.78;5031229;28;20045;-81
2023/02/18 05:56:51;;;;;;;31.15;28.38;;;;;;;9.67;74.21;101380.50;5033645;28;20404;-81
2023/02/18 05:59:18;;;;;;;33.63;30.20;;;;;;;9.75;73.67;101384.91;5033060;28;20042;-81
2023/02/18 06:01:45;;;;;;;27.23;25.00;;;;;;;9.12;77.29;101389.69;5032746;28;20053;-81
2023/02/18 06:04:12;;;;;;;29.33;26.48;;;;;;;9.55;75.73;101385.44;5032146;28;20103;-80
2023/02/18 06:06:39;;;;;;;26.73;24.17;;;;;;;9.73;74.85;101377.13;5031308;28;20049;-80
2023/02/18 06:09:08;;;;;;;27.50;25.20;;;;;;;9.45;75.64;101376.94;5030316;28;20056;-80
2023/02/18 06:11:35;;;;;;;31.60;29.08;;;;;;;9.57;75.47;101383.44;5031819;28;20545;-80
2023/02/18 06:14:02;;;;;;;28.02;25.58;;;;;;;10.04;73.95;101379.53;5032975;28;20057;-80
2023/02/18 06:16:29;;;;;;;28.08;25.70;;;;;;;10.08;72.05;101382.66;5032737;28;20045;-80
2023/02/18 06:18:56;;;;;;;27.30;25.02;;;;;;;9.12;76.55;101373.81;5033019;28;20469;-81
2023/02/18 06:21:23;;;;;;;26.25;24.08;;;;;;;10.10;72.67;101388.59;5033330;28;20111;-80
2023/02/18 06:23:50;;;;;;;27.73;25.33;;;;;;;9.39;75.48;101396.22;5033285;28;20045;-81
2023/02/18 06:26:18;;;;;;;27.65;25.35;;;;;;;9.60;75.52;101398.97;5032711;28;20041;-80
2023/02/18 06:28:44;;;;;;;28.08;25.77;;;;;;;9.74;74.77;101400.00;5032320;28;20045;-81
2023/02/18 06:31:11;;;;;;;26.02;23.75;;;;;;;9.93;74.70;101398.59;4978443;28;20062;-80
2023/02/18 06:33:38;;;;;;;27.02;24.52;;;;;;;10.19;71.82;101378.69;5030022;28;20041;-80
2023/02/18 06:36:07;;;;;;;25.20;22.88;;;;;;;10.38;70.98;101390.56;5032787;28;20054;-80
2023/02/18 06:38:35;;;;;;;25.65;23.35;;;;;;;9.97;74.08;101394.56;5032465;28;20042;-80
2023/02/18 06:41:02;;;;;;;31.10;28.50;;;;;;;10.14;72.27;101395.19;5030963;28;20049;-80
2023/02/18 06:43:30;;;;;;;27.95;25.45;;;;;;;10.08;72.26;101407.38;5028897;28;20107;-79
2023/02/18 06:45:57;;;;;;;28.58;26.25;;;;;;;9.29;77.01;101406.25;5032484;28;20122;-79
2023/02/18 06:48:24;;;;;;;28.20;25.45;;;;;;;9.67;75.87;101408.88;5031973;28;20099;-79
2023/02/18 06:50:51;;;;;;;26.65;24.55;;;;;;;9.57;76.51;101402.00;5031511;28;20054;-79
2023/02/18 06:53:17;;;;;;;28.23;26.02;;;;;;;10.37;72.48;101394.22;5030889;28;20099;-79
2023/02/18 06:55:44;;;;;;;25.25;23.15;;;;;;;9.15;78.00;101392.81;5031748;28;20045;-79
2023/02/18 06:58:12;;;;;;;27.30;24.98;;;;;;;9.95;76.55;101387.78;5032524;28;20111;-80
2023/02/18 07:00:40;;;;;;;29.52;27.17;;;;;;;9.66;76.25;101399.28;5032527;28;20120;-80
2023/02/18 07:03:07;;;;;;;26.17;23.77;;;;;;;9.94;76.45;101397.59;5031629;28;20491;-80
2023/02/18 07:05:34;;;;;;;28.17;25.67;;;;;;;10.38;73.98;101394.06;5031583;28;20518;-80
2023/02/18 07:08:01;;;;;;;28.15;25.98;;;;;;;10.49;73.13;101404.16;5030562;28;20053;-80
2023/02/18 07:10:28;;;;;;;27.65;25.48;;;;;;;10.54;73.01;101393.00;5032225;28;20111;-80
2023/02/18 07:12:55;;;;;;;25.20;23.23;;;;;;;10.47;74.34;101410.72;5031334;28;20513;-79
2023/02/18 07:15:23;;;;;;;27.45;25.27;;;;;;;9.58;76.80;101413.44;5030300;28;20049;-80
2023/02/18 07:17:51;;;;;;;27.17;24.38;;;;;;;10.37;77.14;101400.38;5031216;28;20057;-79
2023/02/18 07:20:18;;;;;;;25.33;23.30;;;;;;;9.69;74.96;101398.91;5032791;28;20475;-79
2023/02/18 07:22:45;;;;;;;26.65;24.38;;;;;;;10.22;72.38;101410.16;5032608;28;20053;-79
2023/02/18 07:25:12;;;;;;;28.08;25.83;;;;;;;11.03;72.41;101407.34;5031732;28;20054;-80
2023/02/18 07:27:38;;;;;;;29.63;26.92;;;;;;;10.75;72.42;101398.31;5031039;28;20045;-79
2023/02/18 07:30:06;;;;;;;29.25;26.75;;;;;;;11.29;68.49;101402.22;5031826;28;20481;-79
2023/02/18 07:32:33;;;;;;;22.35;20.48;;;;;;;11.21;69.46;101403.19;5031726;28;20103;-79
2023/02/18 07:35:02;;;;;;;25.52;23.17;;;;;;;11.05;72.57;101405.31;5032251;28;20060;-79
2023/02/18 07:37:29;;;;;;;27.23;24.95;;;;;;;9.76;73.31;101381.22;5031529;28;20092;-79
2023/02/18 07:39:55;;;;;;;28.10;25.73;;;;;;;10.26;72.89;101388.41;5030227;28;20057;-79
2023/02/18 07:42:22;;;;;;;29.85;26.75;;;;;;;11.11;72.05;101391.25;5032201;28;20099;-79
2023/02/18 07:44:49;;;;;;;32.05;29.75;;;;;;;11.09;70.47;101386.13;5030554;28;20490;-80
2023/02/18 07:47:18;;;;;;;31.10;28.40;;;;;;;10.92;72.42;101382.09;5031467;28;20041;-80
2023/02/18 07:49:45;;;;;;;25.55;23.35;;;;;;;11.40;70.73;101379.56;5031362;28;20080;-80
2023/02/18 07:52:13;;;;;;;28.33;25.88;;;;;;;11.63;69.68;101380.13;5030590;28;20103;-80
2023/02/18 07:54:40;;;;;;;28.75;26.55;;;;;;;10.11;72.80;101371.69;5029750;28;20067;-80
2023/02/18 07:57:07;;;;;;;28.65;26.55;;;;;;;10.95;71.89;101376.38;5031606;28;20045;-80
2023/02/18 07:59:34;;;;;;;25.85;23.73;;;;;;;10.01;75.39;101382.56;5031489;28;20103;-80
2023/02/18 08:02:00;;;;;;;24.70;22.67;;;;;;;11.43;72.87;101393.31;5030813;28;20565;-80
2023/02/18 08:04:27;;;;;;;22.77;20.80;;;;;;;11.06;72.43;101388.34;5031618;28;20042;-80
2023/02/18 08:06:54;;;;;;;24.02;21.95;;;;;;;11.55;71.31;101377.63;5027606;28;20551;-78
2023/02/18 08:09:22;;;;;;;25.20;23.15;;;;;;;10.65;72.46;101375.72;5030112;28;20049;-79
2023/02/18 08:11:49;;;;;;;25.20;22.75;;;;;;;10.37;73.69;101373.00;5029481;28;20049;-80
2023/02/18 08:14:15;;;;;;;24.20;22.30;;;;;;;11.04;70.10;101380.53;5030077;28;20063;-80
2023/02/18 08:16:42;;;;;;;28.92;26.52;;;;;;;11.85;70.33;101386.19;5031687;28;20041;-80
2023/02/18 08:19:09;;;;;;;28.73;26.05;;;;;;;12.06;69.06;101382.59;5031584;28;20103;-80
2023/02/18 08:21:35;;;;;;;29.27;26.42;;;;;;;12.27;69.10;101394.97;5030802;28;20111;-80
2023/02/18 08:24:02;;;;;;;29.60;27.02;;;;;;;11.84;73.34;101391.69;5030779;28;20513;-81
2023/02/18 08:26:30;;;;;;;28.33;25.83;;;;;;;11.78;71.64;101392.50;5034146;28;20096;-80
2023/02/18 08:28:57;;;;;;;25.90;23.67;;;;;;;10.86;71.85;101385.50;5034119;28;20053;-80
2023/02/18 08:31:25;;;;;;;23.05;21.15;;;;;;;11.42;70.68;101378.38;5034220;28;20046;-80
2023/02/18 08:33:53;;;;;;;25.00;22.80;;;;;;;12.83;66.19;101362.69;5032858;28;20045;-80
2023/02/18 08:36:20;;;;;;;27.80;25.50;;;;;;;12.49;67.58;101374.31;5034014;28;20111;-80
2023/02/18 08:38:46;;;;;;;25.25;23.05;;;;;;;12.30;68.97;101375.09;5033909;28;20461;-79
2023/02/18 08:41:14;;;;;;;25.13;22.92;;;;;;;11.51;72.56;101383.53;5034380;28;20057;-80
2023/02/18 08:43:42;;;;;;;24.85;22.60;;;;;;;11.26;70.07;101367.22;5034234;28;20056;-80
2023/02/18 08:46:09;;;;;;;23.98;21.63;;;;;;;10.72;71.33;101366.00;5032577;28;20049;-80
2023/02/18 08:48:36;;;;;;;27.05;24.75;;;;;;;12.51;69.33;101364.28;5034616;28;20053;-80
2023/02/18 08:51:11;;;;;;;30.38;28.08;;;;;;;12.31;70.21;101369.56;5033115;28;20103;-80
2023/02/18 08:53:38;;;;;;;26.55;24.05;;;;;;;11.59;68.62;101372.72;5033287;28;20046;-81
2023/02/18 08:56:07;;;;;;;29.80;27.05;;;;;;;12.74;66.01;101361.25;5034602;28;20049;-80
2023/02/18 08:58:36;;;;;;;25.50;23.45;;;;;;;10.13;73.58;101377.59;5032742;28;20514;-80
2023/02/18 09:01:05;;;;;;;31.17;28.52;;;;;;;12.31;70.90;101366.88;5032278;28;20045;-80
2023/02/18 09:03:33;;;;;;;26.40;24.40;;;;;;;12.00;70.88;101374.59;5032369;28;20115;-80
2023/02/18 09:06:00;;;;;;;28.65;26.35;;;;;;;11.70;71.04;101367.66;5033806;28;20498;-80
2023/02/18 09:08:27;;;;;;;29.35;26.77;;;;;;;12.10;70.32;101370.56;5033959;28;20099;-80
2023/02/18 09:10:56;;;;;;;27.33;25.33;;;;;;;10.65;71.70;101357.97;5033558;28;20061;-80
2023/02/18 09:13:23;;;;;;;31.23;28.42;;;;;;;11.91;72.36;101364.09;5031137;28;20050;-80
2023/02/18 09:15:57;;;;;;;25.00;22.70;;;;;;;12.37;69.25;101344.81;5033385;28;20107;-79
2023/02/18 09:18:26;;;;;;;26.15;23.85;;;;;;;12.42;70.25;101351.34;5033452;28;20055;-80
2023/02/18 09:20:56;;;;;;;27.65;25.23;;;;;;;12.22;72.60;101353.97;5032566;28;20107;-80
2023/02/18 09:23:23;;;;;;;29.00;26.73;;;;;;;12.24;70.48;101336.78;5032569;28;20513;-80
2023/02/18 09:25:50;;;;;;;25.50;23.33;;;;;;;12.09;71.79;101347.59;5032009;28;20103;-80
2023/02/18 09:28:16;;;;;;;28.63;26.20;;;;;;;12.40;72.39;101348.06;5033391;28;20049;-80
2023/02/18 09:30:43;;;;;;;27.05;24.77;;;;;;;12.51;72.50;101353.63;5033584;28;20124;-80
2023/02/18 09:33:10;;;;;;;24.90;22.90;;;;;;;11.95;72.97;101342.41;5032877;28;20041;-79
2023/02/18 09:35:40;;;;;;;24.17;21.95;;;;;;;10.59;75.39;101355.22;5031817;28;20053;-80
2023/02/18 09:38:08;;;;;;;23.60;21.23;;;;;;;10.24;76.24;101363.84;5032295;28;20052;-79
2023/02/18 09:40:37;;;;;;;27.95;25.65;;;;;;;11.83;71.99;101353.63;5032403;28;20586;-79
2023/02/18 09:43:04;;;;;;;24.10;22.05;;;;;;;11.68;72.16;101361.75;5032920;28;20049;-80
2023/02/18 09:45:32;;;;;;;26.13;23.92;;;;;;;12.34;72.69;101345.22;5032911;28;20045;-80
2023/02/18 09:48:02;;;;;;;24.10;22.08;;;;;;;11.03;72.31;101335.56;5032530;28;20124;-80
2023/02/18 09:50:32;;;;;;;28.20;25.77;;;;;;;12.35;72.32;101346.84;5031829;28;20461;-79
2023/02/18 09:53:02;;;;;;;25.40;23.33;;;;;;;11.96;71.97;101344.06;5033004;28;20505;-80
2023/02/18 09:55:32;;;;;;;27.38;25.00;;;;;;;12.17;72.46;101353.78;5032884;28;20119;-79
2023/02/18 09:58:02;;;;;;;29.17;26.52;;;;;;;12.00;71.97;101338.13;5032437;28;20515;-79
2023/02/18 10:00:32;;;;;;;26.88;24.58;;;;;;;12.21;70.52;101349.69;5032617;28;20054;-79
2023/02/18 10:03:04;;;;;;;25.05;22.83;;;;;;;12.75;69.38;101359.38;5031108;28;20465;-80
2023/02/18 10:05:32;;;;;;;27.02;24.67;;;;;;;12.33;71.60;101356.06;5027436;28;20099;-80
2023/02/18 10:08:04;;;;;;;28.10;25.65;;;;;;;12.05;74.89;101353.53;5032435;28;20042;-80
2023/02/18 10:10:39;;;;;;;25.35;23.35;;;;;;;11.78;72.52;101348.06;5032321;28;20124;-80
2023/02/18 10:13:13;;;;;;;25.00;22.83;;;;;;;11.86;73.62;101341.75;5032174;28;20061;-80
2023/02/18 10:15:42;;;;;;;25.23;22.88;;;;;;;11.65;71.44;101343.50;5033150;28;20521;-80
2023/02/18 10:18:21;;;;;;;27.08;24.48;;;;;;;12.30;72.37;101327.16;5030890;28;20053;-80
2023/02/18 10:20:50;;;;;;;25.85;23.55;;;;;;;11.24;75.18;101335.50;5032214;28;20532;-80
2023/02/18 10:23:20;;;;;;;24.25;22.17;;;;;;;11.79;72.31;101328.41;5029787;28;20112;-80
2023/02/18 10:25:49;;;;;;;23.92;21.88;;;;;;;11.22;72.43;101330.41;5031646;28;20569;-80
2023/02/18 10:28:18;;;;;;;23.63;21.52;;;;;;;12.36;72.54;101324.50;5027989;28;20572;-80
2023/02/18 10:30:52;;;;;;;26.23;23.80;;;;;;;12.35;74.43;101319.38;4675737;28;10000398;-80
2023/02/18 10:33:32;;;;;;;26.02;23.80;;;;;;;12.13;71.66;101311.56;5025160;28;20213;-79
2023/02/18 10:36:11;;;;;;;26.73;24.40;;;;;;;10.71;73.75;101308.53;5026542;28;20119;-80
2023/02/18 10:38:55;;;;;;;26.05;23.70;;;;;;;13.16;71.97;101324.50;5029143;28;20046;-80
2023/02/18 10:41:30;;;;;;;23.33;21.23;;;;;;;11.88;75.01;101316.59;4327481;28;10000135;-80
2023/02/18 10:44:08;;;;;;;25.13;23.17;;;;;;;12.12;74.74;101322.41;5026055;28;20220;-80
2023/02/18 10:46:43;;;;;;;24.67;22.08;;;;;;;12.64;73.06;101318.16;5025821;28;20049;-80
2023/02/18 10:49:27;;;;;;;27.58;25.17;;;;;;;12.76;72.63;101311.19;5026294;28;20045;-80
2023/02/18 10:51:57;;;;;;;28.65;26.35;;;;;;;10.40;75.95;101303.56;5030038;28;20049;-79
2023/02/18 10:54:28;;;;;;;24.38;22.33;;;;;;;11.26;78.44;101308.72;5029243;28;20505;-79
2023/02/18 10:57:00;;;;;;;23.15;20.95;;;;;;;12.83;74.53;101292.56;4675582;28;9999936;-79
2023/02/18 10:59:32;;;;;;;24.03;21.80;;;;;;;12.78;74.59;101303.81;5024235;28;20114;-80
2023/02/18 11:02:02;;;;;;;25.52;23.23;;;;;;;11.96;75.67;101302.31;5022063;28;20515;-79
2023/02/18 11:04:36;;;;;;;27.20;25.00;;;;;;;11.10;74.66;101285.91;5025434;28;20647;-79
2023/02/18 11:07:06;;;;;;;23.58;21.13;;;;;;;11.02;75.35;101292.22;5026565;28;20064;-80
2023/02/18 11:09:41;;;;;;;26.40;23.98;;;;;;;11.26;77.05;101292.78;5026088;28;20049;-79
2023/02/18 11:12:15;;;;;;;27.70;25.60;;;;;;;11.65;76.87;101269.00;5025174;28;20119;-79
2023/02/18 11:14:44;;;;;;;26.15;23.85;;;;;;;12.23;77.56;101275.72;5027023;28;20057;-79
2023/02/18 11:17:18;;;;;;;26.02;23.73;;;;;;;11.79;79.59;101266.38;5027060;28;20049;-80
2023/02/18 11:19:53;;;;;;;25.60;23.30;;;;;;;11.18;81.00;101270.63;5026365;28;20045;-79
2023/02/18 11:22:22;;;;;;;24.27;22.10;;;;;;;11.65;81.42;101268.19;5023855;28;20503;-80
2023/02/18 11:24:54;;;;;;;26.10;23.75;;;;;;;10.94;81.39;101265.78;5026792;28;20104;-79